TNCB/BON METAR and TAF weather

Enter ICAO airport designator
Station Type Date Time Source
TNCB METAR 2019/02/22 23:55 UTC NOAA

TNCB 222355Z AUTO 09022KT 9999 FEW016/// SCT020/// BKN034/// 26/22 Q1014


Station Type Date Time Source
TNCB Decoded METAR 2019/02/22 23:55 UTC NOAA

Flamingo Airport, Bonaire, Netherlands Antilles (TNCB) 12-09N 068-17W 7M
Feb 22, 2019 - 06:55 PM EST / 2019.02.22 2355 UTC
Wind: from the E (090 degrees) at 25 MPH (22 KT):0
Visibility: greater than 7 mile(s):0
Sky conditions: mostly cloudy
Temperature: 78 F (26 C)
Dew Point: 71 F (22 C)
Relative Humidity: 78%
Pressure (altimeter): 29.94 in. Hg (1014 hPa)
ob: TNCB 222355Z AUTO 09022KT 9999 FEW016/// SCT020/// BKN034/// 26/22 Q1014
cycle: 0

Station Type Date Time Source
TNCB TAF 2019/02/22 18:27 UTC NOAA

TAF TAF TNCB 221605Z 2218/2324 09018KT 9999 SCT020


Example: see airport list